M I D A S
Marine Information and Data Acquisition System
Tripno 431 of the Zeeleeuw from 2003-02-14 07:41:10 to 2003-02-14 14:48:10
Back to CruiseResearch ActivitiesStationsMapUnderway DataData graphs

EquipmentUnitsComment
TimeDGPSUTC
LatitudeDGPSDM.mWGS84
LongitudeDGPSDM.mWGS84
TemperatureSBE03/SBE38deg celciusITS90
ConductivitySBE21S/mITS90
SalinitySBE21 Practical Salinity Units
ChlorophylAChelsea fluorimeterg/lCalibrated in Aceton
Missing or incorrect values are displayed as -999
Sea surface data collected by the RV Zeeleeuw from 2003-02-14 07:41:10 to 2003-02-14 14:48:10
Time Latitude Longitude Temperature Conductivity Salinity ChlorophylA
2003-02-14 07:42:14 51°13.676 2°55.788 5.132612 2.386047 21.060413 4.679674
2003-02-14 07:43:14 51°13.682 2°55.745 4.645525 2.510239 25.186635 6.264016
2003-02-14 07:44:13 51°13.699 2°55.76 4.495356 2.466083 24.95932 7.207879
2003-02-14 07:45:14 51°13.698 2°55.753 4.444162 2.385243 24.169073 7.780939
2003-02-14 07:46:13 51°13.748 2°55.706 4.394769 2.479542 25.277092 7.71352
2003-02-14 07:47:14 51°13.852 2°55.613 4.362502 2.427712 24.713123 7.443845
2003-02-14 07:48:13 51°13.973 2°55.525 4.412381 2.445479 24.945948 6.837076
2003-02-14 07:49:13 51°14.098 2°55.438 4.334524 2.47702 25.332111 6.230306
2003-02-14 07:50:14 51°14.215 2°55.33 4.257801 2.474497 25.326021 5.825794
2003-02-14 07:51:14 51°14.293 2°55.199 -999 2.362962 24.137438 6.095469
2003-02-14 07:52:13 51°14.365 2°55.036 -999 2.358443 24.124842 5.724665
2003-02-14 07:53:13 51°14.423 2°54.788 -999 2.544946 26.27393 5.556118
2003-02-14 07:54:14 51°14.394 2°54.506 -999 2.743735 28.613717 5.556118
2003-02-14 07:55:14 51°14.3 2°54.232 -999 2.794024 29.187223 5.219024
2003-02-14 07:56:13 51°14.202 2°53.947 -999 2.810542 29.345897 4.679674
2003-02-14 07:57:13 51°14.101 2°53.643 -999 2.818224 29.478609 4.275161
2003-02-14 07:58:13 51°13.991 2°53.318 -999 2.826431 29.575635 4.477418
2003-02-14 07:59:13 51°13.882 2°52.984 -999 2.82117 29.521308 4.241452
2003-02-14 08:00:13 51°13.772 2°52.649 -999 2.823274 29.555119 4.511127
2003-02-14 08:01:14 51°13.658 2°52.31 -999 2.824853 29.578106 4.275161
2003-02-14 08:02:13 51°13.55 2°51.98 -999 2.832113 29.642778 4.308871
2003-02-14 08:03:13 51°13.44 2°51.645 -999 2.83327 29.66411 4.039195
2003-02-14 08:04:14 51°13.326 2°51.308 -999 2.841793 29.754505 4.005486
2003-02-14 08:05:13 51°13.219 2°50.979 -999 2.846844 29.807209 3.938067
2003-02-14 08:06:13 51°13.108 2°50.646 -999 2.848633 29.823853 3.938067
2003-02-14 08:07:14 51°12.996 2°50.31 -999 2.850316 29.833667 3.76952
2003-02-14 08:08:14 51°12.887 2°49.979 -999 2.860102 29.934576 3.735811
2003-02-14 08:09:14 51°12.778 2°49.648 -999 2.864417 29.963456 3.76952
2003-02-14 08:10:14 51°12.671 2°49.313 -999 2.860733 29.913744 3.702101
2003-02-14 08:11:14 51°12.563 2°48.98 -999 2.86368 29.950939 3.499845
2003-02-14 08:12:14 51°12.455 2°48.649 -999 2.859787 29.942191 3.297589
2003-02-14 08:13:14 51°12.349 2°48.316 -999 2.858419 29.927201 3.162751
2003-02-14 08:14:13 51°12.243 2°47.992 -999 2.855473 29.905237 3.162751
2003-02-14 08:15:14 51°12.135 2°47.658 -999 2.850632 29.839716 3.061623
2003-02-14 08:16:14 51°12.027 2°47.332 -999 2.860313 29.945048 3.061623
2003-02-14 08:17:14 51°11.924 2°47.003 -999 2.862312 29.979409 2.791947
2003-02-14 08:18:14 51°11.834 2°46.664 -999 2.861471 29.976937 2.825657
2003-02-14 08:19:14 51°11.746 2°46.324 -999 2.864417 30.030357 2.690819
2003-02-14 08:20:14 51°11.659 2°45.982 -999 2.871047 30.090834 2.65711
2003-02-14 08:21:14 51°11.568 2°45.642 8.451389 2.866943 30.059561 2.555982
2003-02-14 08:22:14 51°11.481 2°45.302 8.789249 2.874098 30.136649 2.65711
2003-02-14 08:23:14 51°11.383 2°44.973 8.150755 2.876098 30.174385 2.690819
2003-02-14 08:24:13 51°11.285 2°44.652 9.310863 2.87473 30.173983 2.6234
2003-02-14 08:25:14 51°11.184 2°44.318 8.384729 2.87473 30.177234 2.65711
2003-02-14 08:26:13 51°11.088 2°43.994 8.379824 2.878623 30.202802 2.893076
2003-02-14 08:27:14 51°10.99 2°43.662 7.816409 2.884621 30.242124 3.297589
2003-02-14 08:28:14 51°10.892 2°43.338 8.089774 2.892514 30.31794 3.365007
2003-02-14 08:29:14 51°10.793 2°43.012 8.607028 2.892829 30.322406 3.533554
2003-02-14 08:30:13 51°10.697 2°42.692 8.228214 2.896828 30.362947 3.567264
2003-02-14 08:31:14 51°10.597 2°42.362 7.446459 2.900406 30.388003 3.466136
2003-02-14 08:32:14 51°10.498 2°42.04 8.134393 2.9043 30.424037 3.398717
2003-02-14 08:33:14 51°10.4 2°41.719 8.226913 2.910719 30.478621 3.23017
2003-02-14 08:34:13 51°10.305 2°41.404 7.465291 2.919138 30.565273 3.567264
2003-02-14 08:35:14 51°10.205 2°41.082 7.71732 2.927768 30.63217 3.600973
2003-02-14 08:36:14 51°10.11 2°40.765 8.082479 2.93745 30.72509 3.331298
2003-02-14 08:37:14 51°10.015 2°40.446 7.747534 2.945133 30.775931 3.600973
2003-02-14 08:38:14 51°9.919 2°40.125 7.481093 2.939029 30.737561 3.331298
2003-02-14 08:39:14 51°9.823 2°39.8 7.683738 2.938713 30.746258 3.19646
2003-02-14 08:40:14 51°9.729 2°39.475 8.766738 2.950185 30.844117 3.095332
2003-02-14 08:41:14 51°9.636 2°39.15 8.358517 2.957341 30.899482 3.095332
2003-02-14 08:42:14 51°9.54 2°38.826 7.679703 2.985863 31.140617 3.162751
2003-02-14 08:43:14 51°9.445 2°38.502 8.474922 2.9946 31.228809 3.061623
2003-02-14 08:44:14 51°9.351 2°38.18 8.672166 3.024282 31.472996 2.960494
2003-02-14 08:45:14 51°9.259 2°37.861 9.172873 3.048176 31.685761 3.398717
2003-02-14 08:46:14 51°9.164 2°37.561 8.750818 3.056282 31.752861 3.466136
2003-02-14 08:47:14 51°9.108 2°37.349 8.585268 3.064493 31.839619 3.567264
2003-02-14 08:48:14 51°9.098 2°37.242 8.225852 3.070072 31.913861 3.466136
2003-02-14 08:49:14 51°9.09 2°37.237 7.944402 3.070599 31.931744 3.331298
2003-02-14 08:50:14 51°9.075 2°37.227 7.853316 3.071651 31.93286 2.825657
2003-02-14 08:51:14 51°9.062 2°37.22 8.40098 3.070915 31.946372 2.421144
2003-02-14 08:52:13 51°9.052 2°37.218 7.975622 3.066915 31.957917 2.252597
2003-02-14 08:53:14 51°9.043 2°37.221 8.000104 3.063231 31.936651 2.522272
2003-02-14 08:54:13 51°9.038 2°37.227 8.665846 3.063126 31.942224 2.488563
2003-02-14 08:55:14 51°9.034 2°37.235 7.847546 3.062073 31.940266 2.454853
2003-02-14 08:56:13 51°9.032 2°37.243 8.161468 3.059652 31.936101 2.454853
2003-02-14 08:57:14 51°9.03 2°37.251 7.794478 3.058073 31.924669 2.421144
2003-02-14 08:58:13 51°9.03 2°37.261 8.269366 3.056178 31.909587 2.454853
2003-02-14 08:59:14 51°9.029 2°37.271 8.561967 3.054599 31.899844 2.6234
2003-02-14 09:00:14 51°9.028 2°37.282 7.705026 3.050389 31.872433 2.555982
2003-02-14 09:01:13 51°9.028 2°37.298 8.255973 3.04481 31.83427 2.555982
2003-02-14 09:02:14 51°9.028 2°37.316 8.302547 3.042704 31.809936 2.589691
2003-02-14 09:03:14 51°9.029 2°37.336 7.871011 3.044283 31.823097 2.555982
2003-02-14 09:04:14 51°9.031 2°37.357 7.363409 3.044704 31.820331 2.65711
2003-02-14 09:05:14 51°9.027 2°37.382 7.453729 3.045652 31.823647 2.926785
2003-02-14 09:06:14 51°8.99 2°37.37 7.519558 3.046283 31.814843 2.555982
2003-02-14 09:07:14 51°9.016 2°37.275 7.999039 3.048388 31.817132 2.320016
2003-02-14 09:08:13 51°9.098 2°37.169 8.523881 3.053336 31.869145 2.522272
2003-02-14 09:09:14 51°9.152 2°37.151 8.049764 3.057652 31.915563 2.488563
2003-02-14 09:10:14 51°9.159 2°37.157 9.018496 3.070704 31.910144 2.859366
2003-02-14 09:11:14 51°9.163 2°37.164 7.990138 3.072072 31.900553 2.893076
2003-02-14 09:12:14 51°9.164 2°37.167 7.702596 3.071125 31.894732 2.65711
2003-02-14 09:13:13 51°9.165 2°37.164 8.535828 3.071019 31.896896 2.589691
2003-02-14 09:14:14 51°9.161 2°37.158 7.755401 3.07123 31.891725 2.690819
2003-02-14 09:15:14 51°9.15 2°37.154 8.073879 3.071967 31.895972 2.555982
2003-02-14 09:16:13 51°9.135 2°37.155 8.864036 3.072914 31.906851 2.522272
2003-02-14 09:17:13 51°9.117 2°37.164 8.718249 3.074388 31.913654 2.690819
2003-02-14 09:18:13 51°9.099 2°37.179 7.470998 3.076704 31.933493 2.589691
2003-02-14 09:19:14 51°9.081 2°37.197 8.02651 3.067863 31.978169 2.016631
2003-02-14 09:20:14 51°9.065 2°37.209 8.476842 3.056705 31.923307 1.713247
2003-02-14 09:21:14 51°9.054 2°37.212 8.946222 3.060284 31.939145 2.218888
2003-02-14 09:22:14 51°9.05 2°37.21 7.886858 3.066389 31.970517 2.522272
2003-02-14 09:23:14 51°9.053 2°37.205 8.58129 3.072494 32.004383 2.522272
2003-02-14 09:24:14 51°9.062 2°37.202 7.173762 3.075968 32.022325 2.454853
2003-02-14 09:25:13 51°9.074 2°37.203 7.877651 3.077968 32.032622 2.522272
2003-02-14 09:26:14 51°9.088 2°37.208 7.346796 3.075757 32.019901 2.454853
2003-02-14 09:27:13 51°9.103 2°37.213 7.372154 3.074073 32.010689 2.488563
2003-02-14 09:28:14 51°9.117 2°37.217 7.743892 3.071126 31.994558 2.488563
2003-02-14 09:29:14 51°9.128 2°37.218 7.604937 3.068599 31.988362 2.286306
2003-02-14 09:30:14 51°9.135 2°37.217 8.114936 3.066705 31.983501 2.454853
2003-02-14 09:31:14 51°9.138 2°37.216 7.998265 3.064915 31.972203 2.488563
2003-02-14 09:32:13 51°9.135 2°37.218 7.988928 3.065231 31.967353 2.522272
2003-02-14 09:33:14 51°9.129 2°37.223 8.004457 3.065231 31.976696 2.488563
2003-02-14 09:34:14 51°9.119 2°37.23 6.499231 3.067126 31.98326 2.320016
2003-02-14 09:35:13 51°9.108 2°37.235 7.559607 3.069968 31.999043 2.151469
2003-02-14 09:36:14 51°9.096 2°37.225 7.548355 3.072389 32.008264 2.252597
2003-02-14 09:37:14 51°9.1 2°37.2 7.28211 3.076705 32.035055 2.488563
2003-02-14 09:38:14 51°9.123 2°37.185 7.466656 3.077021 32.032748 2.08405
2003-02-14 09:39:14 51°9.153 2°37.189 7.905997 3.075442 32.032395 2.08405
2003-02-14 09:40:14 51°9.184 2°37.211 7.511516 3.073547 31.990209 2.454853
2003-02-14 09:41:14 51°9.212 2°37.251 7.749379 3.075125 31.964344 2.353725
2003-02-14 09:42:14 51°9.23 2°37.305 7.323383 3.075757 31.941181 2.252597
2003-02-14 09:43:14 51°9.233 2°37.366 7.361064 3.078704 31.96321 2.218888
2003-02-14 09:44:13 51°9.224 2°37.422 7.519802 3.088916 32.049162 2.893076
2003-02-14 09:45:14 51°9.205 2°37.462 7.572952 3.089021 32.054601 2.791947
2003-02-14 09:46:14 51°9.183 2°37.475 7.827081 3.082705 32.018455 2.724529
2003-02-14 09:47:14 51°9.169 2°37.467 8.705189 3.078073 32.012632 2.589691
2003-02-14 09:48:14 51°9.169 2°37.448 7.998604 3.074178 32.000024 2.387435
2003-02-14 09:49:14 51°9.188 2°37.401 7.691564 3.076073 32.012508 2.185178
2003-02-14 09:50:14 51°9.097 2°37.207 7.818398 3.075441 31.989983 1.679537
2003-02-14 09:51:14 51°9.018 2°36.911 7.516585 3.081758 32.055867 2.488563
2003-02-14 09:52:14 51°8.97 2°36.586 7.629998 3.0786 32.052629 2.488563
2003-02-14 09:53:14 51°8.92 2°36.259 7.197425 3.079547 32.060991 2.421144
2003-02-14 09:54:14 51°8.871 2°35.93 7.108704 3.087127 32.093008 2.555982
2003-02-14 09:55:14 51°8.815 2°35.604 7.194437 3.09218 32.132423 2.522272
2003-02-14 09:56:14 51°8.756 2°35.279 7.813353 3.09618 32.172461 2.589691
2003-02-14 09:57:14 51°8.696 2°34.953 8.228262 3.105655 32.2652 2.825657
2003-02-14 09:58:14 51°8.628 2°34.63 7.754624 3.111866 32.319534 2.522272
2003-02-14 09:59:14 51°8.547 2°34.319 7.225584 3.113551 32.329503 2.724529
2003-02-14 10:00:14 51°8.431 2°34.036 7.361797 3.111761 32.325152 2.421144
2003-02-14 10:01:13 51°8.324 2°33.752 7.574607 3.106392 32.284759 2.421144
2003-02-14 10:02:14 51°8.238 2°33.471 6.950858 3.104286 32.248617 2.488563
2003-02-14 10:03:13 51°8.167 2°33.3 7.473875 3.107866 32.285497 1.949212
2003-02-14 10:04:14 51°8.121 2°33.131 7.678439 3.116814 32.363588 2.522272
2003-02-14 10:05:13 51°8.096 2°33.017 7.630728 3.119762 32.395752 2.522272
2003-02-14 10:06:14 51°8.094 2°32.988 8.109238 3.141766 32.582531 3.263879
2003-02-14 10:07:14 51°8.096 2°32.963 8.078662 3.139344 32.560736 2.589691
2003-02-14 10:08:14 51°8.094 2°32.95 7.087412 3.15261 32.666624 3.061623
2003-02-14 10:09:14 51°8.089 2°32.948 7.442166 3.131448 32.49235 2.016631
2003-02-14 10:10:14 51°8.085 2°32.956 7.220394 3.131764 32.487414 2.117759
2003-02-14 10:11:14 51°8.08 2°32.968 7.481629 3.137765 32.552037 2.825657
2003-02-14 10:12:14 51°8.076 2°32.981 7.783219 3.13029 32.485901 2.185178
2003-02-14 10:13:14 51°8.073 2°32.994 7.361162 3.128079 32.472493 1.881794
2003-02-14 10:14:14 51°8.07 2°33.002 7.909727 3.123658 32.437951 1.645828
2003-02-14 10:15:14 51°8.066 2°33.003 7.878668 3.13208 32.505603 2.555982
2003-02-14 10:16:14 51°8.062 2°33.001 7.349532 3.136081 32.539553 2.758238
2003-02-14 10:17:14 51°8.058 2°32.995 7.884096 3.147346 32.639722 3.061623
2003-02-14 10:18:14 51°8.053 2°32.988 8.426549 3.148188 32.646814 2.353725
2003-02-14 10:19:14 51°8.05 2°32.977 7.729174 3.149978 32.664782 2.522272
2003-02-14 10:20:14 51°8.053 2°32.962 7.604061 3.140819 32.589677 1.814375
2003-02-14 10:21:14 51°8.064 2°32.946 7.649603 3.141345 32.597441 1.645828
2003-02-14 10:22:14 51°8.081 2°32.934 8.212498 3.142503 32.611604 1.612118
2003-02-14 10:23:14 51°8.106 2°32.93 7.467291 3.145662 32.63757 1.949212
2003-02-14 10:24:13 51°8.133 2°32.934 7.299278 3.149347 32.661829 1.982922
2003-02-14 10:25:14 51°8.162 2°32.944 8.136517 3.164403 32.800213 2.252597
2003-02-14 10:26:14 51°8.188 2°32.953 8.2353 3.173773 32.872343 2.65711
2003-02-14 10:27:14 51°8.211 2°32.959 9.307071 3.181881 32.948043 2.65711
2003-02-14 10:28:14 51°8.23 2°32.962 8.064263 3.190199 33.026982 3.432426
2003-02-14 10:29:13 51°8.244 2°32.964 8.004022 3.192621 33.050418 3.567264
2003-02-14 10:30:14 51°8.251 2°32.969 8.029218 3.206625 33.176239 4.713383
2003-02-14 10:31:14 51°8.252 2°32.98 7.908564 3.218839 33.291856 5.353862
2003-02-14 10:32:14 51°8.251 2°33.001 7.861219 3.210205 33.208575 4.443708
2003-02-14 10:33:14 51°8.23 2°33.005 8.228214 3.20494 33.161274 3.19646
2003-02-14 10:34:14 51°8.218 2°32.974 7.774044 3.194095 33.066455 2.151469
2003-02-14 10:35:14 51°8.23 2°32.935 8.262332 3.190515 33.031471 1.679537
2003-02-14 10:36:14 51°8.262 2°32.907 7.724462 3.196516 33.083811 1.780665
2003-02-14 10:37:14 51°8.304 2°32.899 8.27794 3.200623 33.113527 2.151469
2003-02-14 10:38:13 51°8.35 2°32.913 8.039661 3.208204 33.180429 2.353725
2003-02-14 10:39:14 51°8.399 2°32.943 8.09243 3.212627 33.215446 2.724529
2003-02-14 10:40:14 51°8.444 2°32.992 8.032409 3.215259 33.23168 2.65711
2003-02-14 10:41:14 51°8.482 2°33.055 7.518437 3.218944 33.25735 2.994204
2003-02-14 10:42:14 51°8.507 2°33.131 7.755401 3.224631 33.320714 3.263879
2003-02-14 10:43:14 51°8.514 2°33.206 7.437725 3.229369 33.378474 4.005486
2003-02-14 10:44:12 51°8.506 2°33.262 7.940238 3.219366 33.273489 2.893076
2003-02-14 10:45:14 51°8.474 2°33.312 8.004941 3.218313 33.266654 3.263879
2003-02-14 10:46:14 51°8.455 2°33.53 7.651694 3.212837 33.217858 2.185178
2003-02-14 10:47:13 51°8.59 2°33.562 8.112377 3.189462 32.997747 1.578409
2003-02-14 10:48:14 51°8.572 2°33.378 8.736282 3.197464 33.077324 1.848084
2003-02-14 10:49:14 51°8.566 2°33.134 8.196779 3.216312 33.241129 2.690819
2003-02-14 10:50:14 51°8.565 2°32.877 8.200492 3.22958 33.368663 2.960494
2003-02-14 10:51:14 51°8.542 2°32.65 8.481404 3.24548 33.499114 3.23017
2003-02-14 10:52:14 51°8.517 2°32.495 8.597203 3.258222 33.594067 3.702101
2003-02-14 10:53:14 51°8.499 2°32.393 8.136758 3.263803 33.632447 4.072905
2003-02-14 10:54:14 51°8.505 2°32.352 8.221417 3.266541 33.647954 4.241452
2003-02-14 10:55:14 51°8.516 2°32.337 7.917283 3.266752 33.647731 3.870648
2003-02-14 10:56:13 51°8.521 2°32.326 8.079822 3.270122 33.671317 5.657247
2003-02-14 10:57:14 51°8.518 2°32.324 7.845219 3.270859 33.675352 5.859503
2003-02-14 10:58:13 51°8.509 2°32.326 7.956456 3.270859 33.670096 5.522409
2003-02-14 10:59:14 51°8.498 2°32.326 8.07615 3.270648 33.679082 4.544836
2003-02-14 11:00:14 51°8.483 2°32.337 7.630826 3.271491 33.680813 4.477418
2003-02-14 11:01:14 51°8.471 2°32.345 8.015388 3.275703 33.707858 4.005486
2003-02-14 11:02:14 51°8.467 2°32.342 7.57563 3.273597 33.694338 5.45499
2003-02-14 11:03:14 51°8.472 2°32.332 7.93312 3.273281 33.689856 4.477418
2003-02-14 11:04:14 51°8.483 2°32.319 8.178306 3.27307 33.686576 4.477418
2003-02-14 11:05:13 51°8.498 2°32.306 7.986025 3.275176 33.703602 3.836939
2003-02-14 11:06:14 51°8.515 2°32.294 8.148342 3.277282 33.7215 4.106614
2003-02-14 11:07:14 51°8.529 2°32.284 7.808501 3.277914 33.721696 4.645965
2003-02-14 11:08:14 51°8.534 2°32.276 7.970928 3.281705 33.743025 5.690956
2003-02-14 11:09:13 51°8.534 2°32.273 7.827372 3.284022 33.75717 5.623537
2003-02-14 11:10:14 51°8.527 2°32.277 8.409632 3.282127 33.745199 5.320153
2003-02-14 11:11:14 51°8.518 2°32.283 7.76618 3.281179 33.74228 4.275161
2003-02-14 11:12:14 51°8.508 2°32.287 8.665415 3.279073 33.728775 3.870648
2003-02-14 11:13:14 51°8.501 2°32.28 9.055911 3.278862 33.730756 4.91564
2003-02-14 11:14:14 51°8.496 2°32.266 8.120151 3.278967 33.729327 5.050477
2003-02-14 11:15:14 51°8.492 2°32.248 8.053727 3.280652 33.743287 5.825794
2003-02-14 11:16:14 51°8.487 2°32.228 8.524601 3.283496 33.759933 4.511127
2003-02-14 11:17:14 51°8.484 2°32.204 7.731117 3.282443 33.754938 5.219024
2003-02-14 11:18:14 51°8.481 2°32.182 8.041739 3.282232 33.755167 5.286443
2003-02-14 11:19:14 51°8.48 2°32.164 7.404679 3.280968 33.746014 5.117896
2003-02-14 11:20:14 51°8.478 2°32.151 8.08045 3.281705 33.753546 4.645965
2003-02-14 11:21:14 51°8.478 2°32.138 8.011132 3.281495 33.748513 5.252734
2003-02-14 11:22:14 51°8.477 2°32.128 8.183756 3.283496 33.759933 4.747093
2003-02-14 11:23:14 51°8.474 2°32.109 8.199383 3.285707 33.773749 5.387571
2003-02-14 11:24:14 51°8.49 2°32.073 8.958138 3.286655 33.767898 4.544836
2003-02-14 11:25:13 51°8.525 2°32.054 8.077261 3.289182 33.785303 3.971777
2003-02-14 11:26:13 51°8.563 2°32.06 7.811315 3.282126 33.732934 3.533554
2003-02-14 11:27:14 51°8.596 2°32.075 8.394345 3.276756 33.695345 3.735811
2003-02-14 11:28:14 51°8.626 2°32.096 8.897248 3.27465 33.680954 4.005486
2003-02-14 11:29:14 51°8.653 2°32.124 8.149693 3.273491 33.672118 4.241452
2003-02-14 11:30:14 51°8.674 2°32.158 7.945902 3.272543 33.661308 3.938067
2003-02-14 11:31:14 51°8.69 2°32.198 8.299369 3.271596 33.658372 3.938067
2003-02-14 11:32:14 51°8.698 2°32.244 7.982058 3.270543 33.648983 3.870648
2003-02-14 11:33:14 51°8.694 2°32.292 8.338454 3.270648 33.651934 3.600973
2003-02-14 11:34:14 51°8.681 2°32.339 8.229998 3.270648 33.648435 2.893076
2003-02-14 11:35:13 51°8.668 2°32.387 8.193499 3.272017 33.655302 3.19646
2003-02-14 11:36:14 51°8.663 2°32.438 7.735295 3.274439 33.677677 3.061623
2003-02-14 11:37:14 51°8.667 2°32.486 8.349184 3.281389 33.727159 3.466136
2003-02-14 11:38:14 51°8.676 2°32.532 8.375785 3.285707 33.770242 4.140324
2003-02-14 11:39:14 51°8.683 2°32.578 8.369147 3.284127 33.76363 5.286443
2003-02-14 11:40:14 51°8.689 2°32.624 8.218187 3.283074 33.75776 6.095469
2003-02-14 11:41:14 51°8.695 2°32.67 8.09784 3.283601 33.75938 5.623537
2003-02-14 11:42:14 51°8.702 2°32.716 7.781374 3.282864 33.751852 5.556118
2003-02-14 11:43:14 51°8.711 2°32.762 8.383623 3.28339 33.756102 5.421281
2003-02-14 11:44:14 51°8.723 2°32.808 8.131979 3.286128 33.771537 4.612255
2003-02-14 11:45:14 51°8.736 2°32.853 8.176666 3.28855 33.78161 4.645965
2003-02-14 11:46:14 51°8.753 2°32.896 8.846326 3.289814 33.789872 5.084187
2003-02-14 11:47:14 51°8.773 2°32.936 8.418764 3.290025 33.789642 4.544836
2003-02-14 11:48:12 51°8.795 2°32.97 7.548453 3.291183 33.798456 5.45499
2003-02-14 11:49:14 51°8.822 2°32.995 8.258044 3.29192 33.801593 5.4887
2003-02-14 11:50:14 51°8.853 2°33.01 8.692364 3.291078 33.804269 5.893212
2003-02-14 11:51:14 51°8.884 2°33.018 8.828373 3.290657 33.795087 5.623537
2003-02-14 11:52:14 51°8.916 2°33.02 8.293639 3.285918 33.770013 5.724665
2003-02-14 11:53:14 51°8.948 2°33.021 8.142936 3.283917 33.761229 5.421281
2003-02-14 11:54:14 51°8.98 2°33.018 7.945951 3.284443 33.758466 4.747093
2003-02-14 11:55:14 51°9.012 2°33.009 7.662928 3.284338 33.759019 4.578546
2003-02-14 11:56:14 51°9.041 2°32.992 8.073637 3.280547 33.726313 3.600973
2003-02-14 11:57:14 51°9.066 2°32.969 8.181103 3.274334 33.678226 3.297589
2003-02-14 11:58:14 51°9.082 2°32.939 7.858746 3.270437 33.643408 3.432426
2003-02-14 11:59:13 51°9.082 2°32.894 8.642718 3.268858 33.636758 3.938067
2003-02-14 12:00:14 51°9.063 2°32.864 7.456412 3.267173 33.621906 3.398717
2003-02-14 12:01:14 51°9.038 2°32.853 7.775015 3.267278 33.618736 3.129042
2003-02-14 12:02:14 51°9.014 2°32.858 8.012099 3.267173 33.622781 3.331298
2003-02-14 12:03:14 51°8.993 2°32.866 8.211534 3.267805 33.629116 3.331298
2003-02-14 12:04:14 51°8.955 2°32.823 8.019595 3.267805 33.62212 3.904358
2003-02-14 12:05:14 51°8.971 2°32.737 7.544896 3.270016 33.640352 2.6234
2003-02-14 12:06:14 51°9.003 2°32.683 9.039062 3.268752 33.627686 3.027913
2003-02-14 12:07:14 51°9.031 2°32.645 7.970492 3.267699 33.620919 3.061623
2003-02-14 12:08:14 51°9.052 2°32.623 7.772831 3.265909 33.60137 3.162751
2003-02-14 12:09:14 51°9.066 2°32.611 8.482316 3.265488 33.596565 3.499845
2003-02-14 12:10:14 51°9.077 2°32.604 8.285646 3.265066 33.593507 3.735811
2003-02-14 12:11:14 51°9.083 2°32.6 8.359768 3.264645 33.590449 4.072905
2003-02-14 12:12:14 51°9.086 2°32.597 8.286849 3.264435 33.589794 4.747093
2003-02-14 12:13:14 51°9.085 2°32.595 7.7419 3.265172 33.594709 5.084187
2003-02-14 12:14:14 51°9.081 2°32.596 8.679681 3.26454 33.589248 5.016768
2003-02-14 12:15:14 51°9.075 2°32.601 8.166293 3.265277 33.598531 5.286443
2003-02-14 12:16:14 51°9.071 2°32.61 9.033541 3.265488 33.599186 5.320153
2003-02-14 12:17:14 51°9.067 2°32.62 8.365925 3.265277 33.596784 5.185315
2003-02-14 12:18:14 51°9.063 2°32.633 8.762771 3.266646 33.613276 5.556118
2003-02-14 12:19:14 51°9.061 2°32.644 7.972089 3.267278 33.61961 5.926922
2003-02-14 12:20:14 51°9.06 2°32.652 8.413189 3.268015 33.628021 5.758375
2003-02-14 12:21:14 51°9.059 2°32.658 8.330947 3.267805 33.622994 5.657247
2003-02-14 12:22:14 51°9.057 2°32.662 8.295566 3.267278 33.614365 5.4887
2003-02-14 12:23:14 51°9.056 2°32.665 8.296866 3.266962 33.609888 5.4887
2003-02-14 12:24:14 51°9.054 2°32.667 8.05827 3.267804 33.618623 5.421281
2003-02-14 12:25:14 51°9.052 2°32.669 8.726094 3.26791 33.616329 5.657247
2003-02-14 12:26:14 51°9.049 2°32.67 9.310578 3.26791 33.616329 5.657247
2003-02-14 12:27:14 51°9.045 2°32.671 8.887181 3.266857 33.605191 5.623537
2003-02-14 12:28:14 51°9.042 2°32.67 8.496958 3.267594 33.610104 5.589828
2003-02-14 12:29:14 51°9.042 2°32.667 8.025446 3.268331 33.618511 5.556118
2003-02-14 12:30:14 51°9.044 2°32.659 7.386025 3.268331 33.616763 5.690956
2003-02-14 12:31:14 51°9.049 2°32.649 8.663931 3.268542 33.61567 4.780802
2003-02-14 12:32:14 51°9.056 2°32.638 7.820242 3.269173 33.620254 4.477418
2003-02-14 12:33:14 51°9.064 2°32.627 7.673237 3.269279 33.618834 4.308871
2003-02-14 12:34:14 51°9.072 2°32.616 8.26662 3.269173 33.616759 4.207742
2003-02-14 12:35:14 51°9.087 2°32.601 7.637199 3.2697 33.621889 4.106614
2003-02-14 12:36:14 51°9.114 2°32.59 8.308565 3.269279 33.61796 3.836939
2003-02-14 12:37:14 51°9.147 2°32.596 8.070062 3.268857 33.613157 3.668392
2003-02-14 12:38:14 51°9.176 2°32.624 8.142936 3.267804 33.607264 3.938067
2003-02-14 12:39:13 51°9.188 2°32.672 7.743454 3.266119 33.591544 3.938067
2003-02-14 12:40:14 51°9.175 2°32.726 8.535204 3.26633 33.599186 3.567264
2003-02-14 12:41:14 51°9.141 2°32.768 8.380113 3.266541 33.600714 2.859366
2003-02-14 12:42:14 51°9.098 2°32.789 8.198081 3.267699 33.610431 2.65711
2003-02-14 12:43:14 51°9.049 2°32.784 8.002135 3.274544 33.671003 3.600973
2003-02-14 12:44:14 51°9.004 2°32.746 8.084411 3.272227 33.64721 3.634683
2003-02-14 12:45:14 51°8.973 2°32.681 8.404249 3.272648 33.644146 3.735811
2003-02-14 12:46:14 51°8.951 2°32.627 8.369292 3.274228 33.658656 4.174033
2003-02-14 12:47:14 51°8.927 2°32.593 7.902945 3.275071 33.663888 3.600973
2003-02-14 12:48:14 51°8.878 2°32.623 8.019595 3.275702 33.670216 3.836939
2003-02-14 12:49:14 51°8.89 2°32.73 8.388095 3.276756 33.681344 3.398717
2003-02-14 12:50:14 51°8.931 2°32.807 8.149886 3.279494 33.69593 3.263879
2003-02-14 12:51:14 51°8.948 2°32.908 8.382998 3.279072 33.697253 3.567264
2003-02-14 12:52:14 51°8.931 2°32.997 8.153264 3.278756 33.694527 3.634683
2003-02-14 12:53:14 51°8.894 2°33.072 8.136999 3.280336 33.700282 2.960494
2003-02-14 12:54:14 51°8.853 2°33.137 8.386893 3.285391 33.736867 2.994204
2003-02-14 12:55:14 51°8.807 2°33.184 8.824695 3.263803 33.572981 2.589691
2003-02-14 12:56:14 51°8.754 2°33.196 8.029459 3.262013 33.575262 2.859366
2003-02-14 12:57:14 51°8.704 2°33.16 8.614119 3.261802 33.583344 3.466136
2003-02-14 12:58:14 51°8.676 2°33.085 8.805732 3.260538 33.574162 3.76952
2003-02-14 12:59:14 51°8.682 2°32.993 8.019353 3.261697 33.589136 3.533554
2003-02-14 13:00:14 51°8.719 2°32.913 8.660245 3.262645 33.595584 3.466136
2003-02-14 13:01:14 51°8.776 2°32.863 8.5996 3.263276 33.593179 3.398717
2003-02-14 13:02:14 51°8.841 2°32.846 9.13272 3.266857 33.605191 3.432426
2003-02-14 13:03:14 51°8.906 2°32.869 8.429913 3.287392 33.744778 4.005486
2003-02-14 13:04:14 51°8.956 2°32.931 8.324835 3.287076 33.74468 4.005486
2003-02-14 13:05:14 51°8.979 2°33.025 7.77419 3.284443 33.724324 3.668392
2003-02-14 13:06:14 51°8.966 2°33.111 8.767216 3.283179 33.719552 3.80323
2003-02-14 13:07:14 51°8.95 2°33.167 8.415352 3.283074 33.718353 3.061623
2003-02-14 13:08:14 51°8.938 2°33.204 8.351445 3.270121 33.610972 3.466136
2003-02-14 13:09:14 51°8.931 2°33.23 8.997827 3.266541 33.593728 3.499845
2003-02-14 13:10:14 51°8.925 2°33.251 8.79417 3.266751 33.610981 3.634683
2003-02-14 13:11:14 51°8.919 2°33.277 8.634911 3.265488 33.603556 3.600973
2003-02-14 13:12:14 51°8.935 2°33.375 8.698729 3.266225 33.618962 3.398717
2003-02-14 13:13:14 51°9.002 2°33.575 8.973007 3.265593 33.611751 3.23017
2003-02-14 13:14:14 51°9.047 2°33.818 8.616515 3.260854 33.56641 3.735811
2003-02-14 13:15:14 51°9.094 2°34.063 8.356256 3.259801 33.564873 3.398717
2003-02-14 13:16:14 51°9.14 2°34.307 8.829853 3.253483 33.514567 3.499845
2003-02-14 13:17:14 51°9.187 2°34.548 8.3424 3.243795 33.446651 3.567264
2003-02-14 13:18:14 51°9.234 2°34.785 8.894958 3.239267 33.397519 3.432426
2003-02-14 13:19:14 51°9.282 2°35.025 8.570934 3.225157 33.265829 3.331298
2003-02-14 13:20:14 51°9.33 2°35.266 9.435693 3.211468 33.146628 3.19646
2003-02-14 13:21:14 51°9.378 2°35.505 8.777015 3.202939 33.076781 2.994204
2003-02-14 13:22:14 51°9.424 2°35.746 9.157717 3.198938 33.03533 2.758238
2003-02-14 13:23:14 51°9.47 2°35.987 8.733508 3.197885 33.021557 2.859366
2003-02-14 13:24:14 51°9.524 2°36.224 9.156767 3.19641 33.002105 2.724529
2003-02-14 13:25:14 51°9.576 2°36.462 8.686669 3.19641 33.007286 2.926785
2003-02-14 13:26:14 51°9.629 2°36.7 8.416313 3.195463 32.998173 2.65711
2003-02-14 13:27:14 51°9.679 2°36.935 9.237017 3.197253 33.019514 3.297589
2003-02-14 13:28:14 51°9.727 2°37.17 8.81863 3.192304 32.984483 3.80323
2003-02-14 13:29:14 51°9.776 2°37.406 8.875538 3.193146 32.991533 3.567264
2003-02-14 13:30:14 51°9.824 2°37.643 8.557652 3.191251 32.958624 3.23017
2003-02-14 13:31:14 51°9.873 2°37.884 8.642431 3.189356 32.933495 2.893076
2003-02-14 13:32:14 51°9.92 2°38.125 8.868475 3.183248 32.865377 2.522272
2003-02-14 13:33:14 51°9.966 2°38.364 8.941455 3.173772 32.775057 1.949212
2003-02-14 13:34:14 51°10.013 2°38.603 8.52225 3.1584 32.642923 1.982922
2003-02-14 13:35:14 51°10.06 2°38.843 7.760888 3.153557 32.608032 1.848084
2003-02-14 13:36:14 51°10.108 2°39.079 8.466902 3.149872 32.582096 1.645828
2003-02-14 13:37:14 51°10.157 2°39.312 8.302884 3.142081 32.542451 2.185178
2003-02-14 13:38:14 51°10.205 2°39.546 8.443222 3.133132 32.433052 1.982922
2003-02-14 13:39:14 51°10.254 2°39.782 8.796368 3.13429 32.426714 2.08405
2003-02-14 13:40:14 51°10.303 2°40.017 8.591931 3.129973 32.37729 1.982922
2003-02-14 13:41:14 51°10.351 2°40.251 8.299706 3.127868 32.361687 2.08405
2003-02-14 13:42:14 51°10.401 2°40.481 8.237179 3.131973 32.378076 2.555982
2003-02-14 13:43:14 51°10.449 2°40.711 8.082334 3.129447 32.336433 2.65711
2003-02-14 13:44:14 51°10.498 2°40.94 7.819854 3.12513 32.296397 3.095332
2003-02-14 13:45:14 51°10.548 2°41.17 7.923725 3.117655 32.232077 2.825657
2003-02-14 13:46:14 51°10.598 2°41.4 7.776472 3.109128 32.15143 2.555982
2003-02-14 13:47:14 51°10.648 2°41.628 7.873095 3.102601 32.102072 2.555982
2003-02-14 13:48:14 51°10.696 2°41.856 7.7436 3.097337 32.061221 2.522272
2003-02-14 13:49:14 51°10.745 2°42.083 8.299273 3.09081 32.000809 2.522272
2003-02-14 13:50:14 51°10.794 2°42.311 8.063393 3.087125 31.967874 2.6234
2003-02-14 13:51:14 51°10.844 2°42.539 8.325894 3.08502 31.928621 2.724529
2003-02-14 13:52:14 51°10.895 2°42.766 8.131641 3.079861 31.890568 3.095332
2003-02-14 13:53:14 51°10.944 2°42.993 8.404345 3.074282 31.856055 3.19646
2003-02-14 13:54:14 51°10.994 2°43.222 8.827036 3.071124 31.819028 2.893076
2003-02-14 13:55:14 51°11.043 2°43.45 8.505694 3.068387 31.801926 2.758238
2003-02-14 13:56:14 51°11.093 2°43.676 8.599887 3.042176 31.557478 2.387435
2003-02-14 13:57:14 51°11.142 2°43.902 8.743885 3.035333 31.492348 2.320016
2003-02-14 13:58:14 51°11.191 2°44.127 8.219923 3.030491 31.441811 2.353725
2003-02-14 13:59:14 51°11.24 2°44.351 8.825268 3.024807 31.393242 2.185178
2003-02-14 14:00:14 51°11.288 2°44.576 8.940692 3.013229 31.291933 2.488563
2003-02-14 14:01:14 51°11.343 2°44.797 8.709303 3.002598 31.207166 2.454853
2003-02-14 14:02:14 51°11.397 2°45.017 8.43688 2.992704 31.132384 2.6234
2003-02-14 14:03:14 51°11.451 2°45.238 7.714016 2.986284 31.083374 2.724529
2003-02-14 14:04:14 51°11.505 2°45.46 9.215468 2.982705 31.054612 3.129042
2003-02-14 14:05:14 51°11.559 2°45.682 8.370831 2.984179 31.065777 3.23017
2003-02-14 14:06:14 51°11.613 2°45.905 8.849955 2.974601 30.986143 2.994204
2003-02-14 14:07:14 51°11.668 2°46.128 8.400162 2.96576 30.909124 2.893076
2003-02-14 14:08:14 51°11.722 2°46.35 9.294223 2.958709 30.846873 2.758238
2003-02-14 14:09:14 51°11.782 2°46.569 8.777779 2.955446 30.814241 2.65711
2003-02-14 14:10:14 51°11.845 2°46.787 8.506318 2.952078 30.782856 2.926785
2003-02-14 14:11:14 51°11.906 2°47.004 9.244419 2.951026 30.766637 3.061623
2003-02-14 14:12:14 51°11.968 2°47.221 8.808121 2.949026 30.752637 3.095332
2003-02-14 14:13:14 51°12.031 2°47.439 8.324643 2.9465 30.730112 3.162751
2003-02-14 14:14:14 51°12.092 2°47.656 9.055197 2.943238 30.705651 3.19646
2003-02-14 14:15:14 51°12.152 2°47.872 9.316314 2.939975 30.681176 3.365007
2003-02-14 14:16:14 51°12.212 2°48.088 8.440964 2.937555 30.662295 3.162751
2003-02-14 14:17:14 51°12.275 2°48.304 8.392278 2.936081 30.661695 3.23017
2003-02-14 14:18:14 51°12.341 2°48.517 8.15698 2.933135 30.634274 3.263879
2003-02-14 14:19:14 51°12.405 2°48.73 8.24036 2.931451 30.61077 3.331298
2003-02-14 14:20:14 51°12.472 2°48.944 8.446969 2.930819 30.601038 3.19646
2003-02-14 14:21:14 51°12.537 2°49.158 8.519419 2.929451 30.578733 3.263879
2003-02-14 14:22:14 51°12.606 2°49.369 8.625187 2.927978 30.567473 3.19646
2003-02-14 14:23:14 51°12.679 2°49.576 7.805008 2.923979 30.529551 3.567264
2003-02-14 14:24:14 51°12.752 2°49.783 9.251299 2.920927 30.501718 3.600973
2003-02-14 14:25:14 51°12.825 2°49.992 8.691503 2.920085 30.487124 3.76952
2003-02-14 14:26:14 51°12.899 2°50.201 8.332006 2.916822 30.459304 3.836939
2003-02-14 14:27:14 51°12.974 2°50.408 8.998589 2.914402 30.436292 3.735811
2003-02-14 14:28:14 51°13.05 2°50.616 8.37362 2.912928 30.418498 3.80323
2003-02-14 14:29:14 51°13.126 2°50.824 8.721789 2.910718 30.393031 3.600973
2003-02-14 14:30:14 51°13.201 2°51.03 7.91864 2.906088 30.351855 3.735811
2003-02-14 14:31:14 51°13.274 2°51.234 8.145639 2.904615 30.338933 3.76952
2003-02-14 14:32:14 51°13.347 2°51.438 7.738938 2.901247 30.312289 3.836939
2003-02-14 14:33:14 51°13.42 2°51.642 7.891317 2.896933 30.271465 3.971777
2003-02-14 14:34:14 51°13.492 2°51.844 8.244745 2.892829 30.229008 3.870648
2003-02-14 14:35:14 51°13.564 2°52.046 7.974993 2.890619 30.203531 3.76952
2003-02-14 14:36:14 51°13.666 2°52.264 8.540865 2.889566 30.185741 3.870648
2003-02-14 14:37:14 51°13.796 2°52.522 8.861936 2.888198 30.157056 4.275161
2003-02-14 14:38:14 51°13.934 2°52.794 8.243492 2.888093 30.151002 3.971777
2003-02-14 14:39:14 51°14.072 2°53.067 7.374254 2.887672 30.134865 4.140324
2003-02-14 14:40:14 51°14.199 2°53.354 8.537219 2.888934 30.144566 3.735811
2003-02-14 14:41:14 51°14.299 2°53.664 9.257704 2.892512 30.171234 2.893076
2003-02-14 14:42:14 51°14.369 2°53.992 9.598097 2.87357 29.934949 3.904358
2003-02-14 14:43:14 51°14.399 2°54.323 9.582238 2.835478 29.500036 4.578546
2003-02-14 14:44:14 51°14.416 2°54.645 8.500078 2.853682 29.718447 5.353862
2003-02-14 14:45:14 51°14.385 2°54.954 9.183322 2.83632 29.526254 5.185315
2003-02-14 14:46:14 51°14.292 2°55.202 9.415394 2.776452 28.830181 5.589828
2003-02-14 14:47:14 51°14.203 2°55.343 9.559434 2.640963 27.293648 4.949349